Elnora, New York
Current Conditions -  °F | °C
As of 6:51 PM on Wednesday 22 Oct 2014 (Local Time) from KALB Reporting Station
Overcast Overcast  
Wind Chill: 51°   Ceiling: 1800
Heat Index: 51°   Visibility: 10mi
Dew Point: 44°   Wind: 15mph
Humidity: 77%   Direction: 10°N
Pressure: 30"   Gusts: NA
Location:  42.8536°N, 73.7851°W
Report Text: KALB 222251Z 01013KT 10SM BKN018 OVC027 11/07 A3000 RMK AO2 SLP158 T01060067
Loading
Personal Weather Stations






























Interactive Weather Map
Tropical Storm Tracking
New forecast layout! Learn more

10-Day Weather Forecast

Advertisements
Track Severe Weather on mobile